Hovedside
METAR-TAF:

METAR-TAF

Lufthavner :

Namsos lufthavn

Namsos, Norge

breddegrad: 64-28N, lengdegrad: 011-35E, høyde over havet: 0 m

Gjeldene værobservasjon

Denne rapporten ble laget for 5 timer og 0 minutter siden, klokken 20:50 UTC
Vind 4 kt fra skiftende retning
Temperatur -3°C
Luftfuktighet 93%
Trykk 995 hPa
Sikt: 4000 m
lette snøbyger

METAR: ENNM 282050Z VRB04KT 4000 -SHSN VV018 M03/M04 Q0995

Tid: 02:50 (01:50 UTC)


TAF: fraværende

Værobservasjoner og værvarsel for over 4000 flyplasser (METAR- og TAF-rapporter).

Tilgjengelige stasjoner er representert av de røde og gule prikkene på kartet.

Hold musepekeren over prikken for å se navnet på stasjonen.

Klikk så for å se værobservasjoner og -varsler.

For å forandre kartet kan du klikke på den grønne knappen med svart kryss for å zoome inn, på den grønne knappen med strek for å zoome ut, eller på de grønne pilene for å se tilstøtende kart.


METAR-TAF: